Time;durP1;ratioP1;P1;durP2;ratioP2;P2;SDS_P1;SDS_P2;PMS_P1;PMS_P2;Temp;Humidity;BMP_temperature;BMP_pressure;BME280_temperature;BME280_humidity;BME280_pressure;Samples;Min_cycle;Max_cycle;Signal;HPM_P1;HPM_P2
2023/01/30 00:02:23;;;;;;;10.35;7.45;;;5.20;96.40;;;;;;6212923;23;20005;-66
2023/01/30 00:05:09;;;;;;;10.68;7.35;;;5.20;96.40;;;;;;6213357;23;20016;-66
2023/01/30 00:07:55;;;;;;;11.75;8.32;;;5.20;96.40;;;;;;6211666;23;20447;-65
2023/01/30 00:10:41;;;;;;;10.88;7.20;;;5.20;96.40;;;;;;6212238;23;20036;-65
2023/01/30 00:13:26;;;;;;;11.55;7.78;;;5.20;96.30;;;;;;6212208;23;20039;-66
2023/01/30 00:16:12;;;;;;;11.40;7.75;;;5.20;96.30;;;;;;6211693;23;20007;-66
2023/01/30 00:18:58;;;;;;;13.30;8.63;;;5.20;96.30;;;;;;6211377;23;20012;-66
2023/01/30 00:21:44;;;;;;;13.18;7.28;;;5.20;96.30;;;;;;6192306;23;20083;-66
2023/01/30 00:24:30;;;;;;;14.10;9.07;;;5.20;96.30;;;;;;6211870;23;20075;-66
2023/01/30 00:27:16;;;;;;;11.00;7.32;;;5.20;96.30;;;;;;6212074;23;20070;-66
2023/01/30 00:30:04;;;;;;;13.32;8.40;;;5.20;96.30;;;;;;6211780;23;20001;-66
2023/01/30 00:32:55;;;;;;;12.27;8.05;;;5.20;96.30;;;;;;6211048;23;20013;-66
2023/01/30 00:35:46;;;;;;;14.82;8.73;;;5.10;96.30;;;;;;6214707;23;20008;-66
2023/01/30 00:38:32;;;;;;;12.98;8.13;;;5.10;96.30;;;;;;6212216;23;20012;-66
2023/01/30 00:41:18;;;;;;;12.95;9.30;;;5.10;96.20;;;;;;6212021;23;20112;-66
2023/01/30 00:47:10;;;;;;;15.95;9.18;;;5.20;96.20;;;;;;6213886;23;20100;-66
2023/01/30 00:49:55;;;;;;;13.73;9.52;;;5.20;96.20;;;;;;6213783;23;20011;-66
2023/01/30 00:52:41;;;;;;;13.10;8.80;;;5.10;96.20;;;;;;6212357;23;20009;-66
2023/01/30 00:55:27;;;;;;;15.77;10.05;;;5.10;96.20;;;;;;6211431;23;20008;-66
2023/01/30 00:58:13;;;;;;;14.63;8.88;;;5.10;96.20;;;;;;6211336;23;20009;-66
2023/01/30 01:00:59;;;;;;;14.30;9.27;;;5.10;96.20;;;;;;6211643;23;20012;-66
2023/01/30 01:03:45;;;;;;;13.98;9.45;;;5.10;96.20;;;;;;6210077;23;20300;-66
2023/01/30 01:06:31;;;;;;;14.90;9.55;;;5.00;96.20;;;;;;6211636;23;20062;-66
2023/01/30 01:09:17;;;;;;;14.05;9.20;;;5.00;96.20;;;;;;6211893;23;20001;-66
2023/01/30 01:12:04;;;;;;;14.13;9.23;;;5.10;96.10;;;;;;6212475;23;20026;-66
2023/01/30 01:14:50;;;;;;;14.75;9.48;;;5.00;96.10;;;;;;6212640;23;20038;-66
2023/01/30 01:17:36;;;;;;;12.70;8.57;;;5.10;96.10;;;;;;6211861;23;20001;-66
2023/01/30 01:20:22;;;;;;;14.18;8.98;;;5.00;96.10;;;;;;6211629;23;20380;-65
2023/01/30 01:23:10;;;;;;;14.27;8.85;;;5.00;96.10;;;;;;6211192;23;20382;-66
2023/01/30 01:25:59;;;;;;;15.30;10.70;;;5.00;96.10;;;;;;6210732;23;20344;-66
2023/01/30 01:28:46;;;;;;;15.00;9.02;;;5.00;96.10;;;;;;6213737;23;20452;-66
2023/01/30 01:31:31;;;;;;;12.02;9.27;;;5.00;96.20;;;;;;6211525;23;20009;-66
2023/01/30 01:34:17;;;;;;;13.82;9.48;;;5.00;96.20;;;;;;6210469;23;20012;-66
2023/01/30 01:37:03;;;;;;;16.50;10.07;;;5.00;96.10;;;;;;6212073;23;20016;-66
2023/01/30 01:42:54;;;;;;;17.85;10.68;;;5.00;96.10;;;;;;6213401;23;20387;-65
2023/01/30 01:45:40;;;;;;;14.52;9.57;;;4.90;96.00;;;;;;6211046;23;20000;-66
2023/01/30 01:48:33;;;;;;;16.85;10.60;;;4.90;96.10;;;;;;6213648;23;20025;-66
2023/01/30 01:51:30;;;;;;;16.05;11.30;;;5.00;96.10;;;;;;6214249;23;20004;-66
2023/01/30 01:54:31;;;;;;;17.25;9.43;;;4.90;96.00;;;;;;6212172;23;20436;-66
2023/01/30 01:57:48;;;;;;;16.50;10.13;;;4.90;96.10;;;;;;5060750;28;20523;-65
2023/01/30 02:00:34;;;;;;;14.88;9.93;;;5.00;96.10;;;;;;5067709;28;20040;-66
2023/01/30 02:03:24;;;;;;;16.65;10.63;;;5.00;96.10;;;;;;5068662;28;20059;-65
2023/01/30 02:06:12;;;;;;;15.18;9.73;;;4.90;96.00;;;;;;5058887;28;20017;-65
2023/01/30 02:09:04;;;;;;;13.93;9.55;;;4.90;96.00;;;;;;5048555;28;20017;-65
2023/01/30 02:11:57;;;;;;;19.25;11.80;;;5.00;96.10;;;;;;5047598;28;20029;-65
2023/01/30 02:14:44;;;;;;;15.43;9.93;;;5.00;96.10;;;;;;5042391;28;20172;-64
2023/01/30 02:17:29;;;;;;;16.95;10.27;;;4.90;96.20;;;;;;5029565;28;20038;-64
2023/01/30 02:20:29;;;;;;;18.55;11.50;;;4.90;96.30;;;;;;5029502;28;20036;-65
2023/01/30 02:23:44;;;;;;;16.52;10.07;;;4.90;96.40;;;;;;5026716;28;20026;-65
2023/01/30 02:26:49;;;;;;;15.27;10.02;;;4.90;96.50;;;;;;5026864;28;20018;-65
2023/01/30 02:29:47;;;;;;;18.80;10.80;;;4.90;96.50;;;;;;5032827;28;20548;-64
2023/01/30 02:32:38;;;;;;;15.45;10.23;;;4.90;96.60;;;;;;5061557;28;20033;-64
2023/01/30 02:35:42;;;;;;;18.52;10.85;;;4.90;96.70;;;;;;5066152;28;20112;-64
2023/01/30 02:38:45;;;;;;;16.52;10.88;;;4.90;96.70;;;;;;5065746;28;20178;-64
2023/01/30 02:41:36;;;;;;;17.20;11.32;;;4.90;96.70;;;;;;5066358;28;20103;-64
2023/01/30 02:44:46;;;;;;;15.68;10.20;;;4.90;96.70;;;;;;5065912;28;20025;-65
2023/01/30 02:47:40;;;;;;;17.25;10.68;;;4.90;96.80;;;;;;5049804;28;20064;-65
2023/01/30 02:50:45;;;;;;;21.05;13.13;;;4.90;96.80;;;;;;5044716;28;20067;-65
2023/01/30 02:53:32;;;;;;;15.77;10.75;;;4.90;96.90;;;;;;5045942;28;20040;-64
2023/01/30 02:56:19;;;;;;;16.15;10.75;;;4.90;97.00;;;;;;5045851;28;20049;-64
2023/01/30 02:59:05;;;;;;;18.17;11.23;;;4.90;97.10;;;;;;5045908;28;20025;-64
2023/01/30 03:02:00;;;;;;;18.73;11.55;;;4.90;97.20;;;;;;5045863;28;20025;-64
2023/01/30 03:05:06;;;;;;;17.08;11.23;;;4.90;97.30;;;;;;5038745;28;20022;-64
2023/01/30 03:08:22;;;;;;;17.75;12.38;;;4.90;97.40;;;;;;5018322;28;20113;-63
2023/01/30 03:11:10;;;;;;;16.90;10.98;;;4.90;97.40;;;;;;5013913;28;20018;-63
2023/01/30 03:14:07;;;;;;;16.95;11.52;;;4.90;97.40;;;;;;5014271;28;20084;-64
2023/01/30 03:16:56;;;;;;;19.05;11.45;;;4.90;97.50;;;;;;5012650;28;20073;-63
2023/01/30 03:19:42;;;;;;;18.83;11.98;;;4.90;97.60;;;;;;5020350;28;20026;-64
2023/01/30 03:22:28;;;;;;;16.38;11.45;;;4.80;97.60;;;;;;5020473;28;20030;-64
2023/01/30 03:25:20;;;;;;;19.73;11.77;;;4.80;97.70;;;;;;5014606;28;20022;-64
2023/01/30 03:28:08;;;;;;;18.02;10.40;;;4.80;97.70;;;;;;5013061;28;20077;-64
2023/01/30 03:30:54;;;;;;;20.30;12.23;;;4.80;97.80;;;;;;5012389;28;20436;-64
2023/01/30 03:33:40;;;;;;;19.38;11.63;;;4.80;97.80;;;;;;5012705;28;20030;-64
2023/01/30 03:36:26;;;;;;;17.75;11.07;;;4.80;97.80;;;;;;5012666;28;20061;-64
2023/01/30 03:39:12;;;;;;;17.35;11.55;;;4.90;97.90;;;;;;5012878;28;20037;-64
2023/01/30 03:41:58;;;;;;;17.60;11.18;;;4.90;97.90;;;;;;5014228;28;20029;-64
2023/01/30 03:44:44;;;;;;;16.73;11.60;;;4.90;98.00;;;;;;5013162;28;20093;-64
2023/01/30 03:47:30;;;;;;;16.55;11.18;;;4.90;98.00;;;;;;5014404;28;20112;-64
2023/01/30 03:50:17;;;;;;;16.58;11.52;;;4.90;98.00;;;;;;5013434;28;20066;-64
2023/01/30 03:53:02;;;;;;;15.75;10.40;;;4.90;98.00;;;;;;5011502;28;20049;-65
2023/01/30 03:55:48;;;;;;;16.58;10.80;;;4.90;98.00;;;;;;5013338;28;20046;-64
2023/01/30 03:58:34;;;;;;;15.80;10.50;;;4.90;98.10;;;;;;5014069;28;20029;-64
2023/01/30 04:01:20;;;;;;;22.73;11.02;;;5.00;98.10;;;;;;5013876;28;20084;-65
2023/01/30 04:04:06;;;;;;;18.63;11.05;;;4.90;98.10;;;;;;5013837;28;20040;-64
2023/01/30 04:06:52;;;;;;;15.60;10.68;;;4.90;98.20;;;;;;5027242;28;20021;-65
2023/01/30 04:09:38;;;;;;;18.20;11.35;;;5.00;98.30;;;;;;5032527;28;20091;-65
2023/01/30 04:12:24;;;;;;;16.33;9.88;;;5.00;98.30;;;;;;5031068;28;20130;-65
2023/01/30 04:15:11;;;;;;;17.70;11.07;;;5.00;98.40;;;;;;5032339;28;20457;-65
2023/01/30 04:17:57;;;;;;;18.73;10.60;;;5.00;98.40;;;;;;5032145;28;20277;-65
2023/01/30 04:20:43;;;;;;;18.40;10.98;;;5.00;98.40;;;;;;5031491;28;20025;-65
2023/01/30 04:23:29;;;;;;;18.15;11.40;;;5.00;98.40;;;;;;5030933;28;20072;-65
2023/01/30 04:26:15;;;;;;;19.00;11.32;;;5.00;98.40;;;;;;5031277;28;20030;-65
2023/01/30 04:29:01;;;;;;;16.23;10.15;;;5.10;98.50;;;;;;5030435;28;20507;-64
2023/01/30 04:31:46;;;;;;;18.05;11.80;;;5.10;98.50;;;;;;5031179;28;20021;-65
2023/01/30 04:34:32;;;;;;;16.67;11.07;;;5.10;98.50;;;;;;5030782;28;20036;-65
2023/01/30 04:37:18;;;;;;;16.83;10.40;;;5.10;98.50;;;;;;5030913;28;20044;-65
2023/01/30 04:40:05;;;;;;;18.50;10.60;;;5.10;98.50;;;;;;5031494;28;20029;-65
2023/01/30 04:42:51;;;;;;;16.85;10.23;;;5.10;98.50;;;;;;5032048;28;20022;-65
2023/01/30 04:45:37;;;;;;;18.70;11.13;;;5.20;98.50;;;;;;5031702;28;20017;-65
2023/01/30 04:48:24;;;;;;;14.77;10.00;;;5.20;98.50;;;;;;5031859;28;20031;-65
2023/01/30 04:51:10;;;;;;;17.50;10.57;;;5.20;98.50;;;;;;5030928;28;20061;-65
2023/01/30 04:53:56;;;;;;;16.30;10.02;;;5.30;98.60;;;;;;5030377;28;20025;-65
2023/01/30 04:56:42;;;;;;;17.15;10.52;;;5.30;98.50;;;;;;5031404;28;20084;-64
2023/01/30 04:59:28;;;;;;;14.93;9.43;;;5.30;98.50;;;;;;5030390;28;20022;-64
2023/01/30 05:02:14;;;;;;;15.95;9.63;;;5.30;98.50;;;;;;5032710;28;20021;-65
2023/01/30 05:05:00;;;;;;;15.38;10.07;;;5.30;98.60;;;;;;5030459;28;20071;-64
2023/01/30 05:07:46;;;;;;;14.95;9.68;;;5.30;98.60;;;;;;5011762;28;20040;-64
2023/01/30 05:10:31;;;;;;;14.85;9.77;;;5.40;98.70;;;;;;5012140;28;20032;-65
2023/01/30 05:13:18;;;;;;;16.75;10.52;;;5.40;98.70;;;;;;5010752;28;20056;-64
2023/01/30 05:16:04;;;;;;;16.63;10.80;;;5.40;98.80;;;;;;5010383;28;20056;-64
2023/01/30 05:18:50;;;;;;;15.45;10.02;;;5.40;98.80;;;;;;5011429;28;20030;-64
2023/01/30 05:21:36;;;;;;;14.05;9.27;;;5.40;98.90;;;;;;5012094;28;20631;-64
2023/01/30 05:24:22;;;;;;;15.35;10.25;;;5.40;99.00;;;;;;5011859;28;20416;-64
2023/01/30 05:27:08;;;;;;;16.00;10.82;;;5.40;99.00;;;;;;5013165;28;20026;-64
2023/01/30 05:29:54;;;;;;;14.88;10.05;;;5.40;99.10;;;;;;5037463;28;20037;-64
2023/01/30 05:32:40;;;;;;;15.32;10.55;;;5.40;99.20;;;;;;5049508;28;20373;-64
2023/01/30 05:35:26;;;;;;;14.13;10.23;;;5.30;99.20;;;;;;5049366;28;20028;-64
2023/01/30 05:38:11;;;;;;;16.98;10.98;;;5.40;99.20;;;;;;5027285;28;20220;-64
2023/01/30 05:41:03;;;;;;;16.08;10.75;;;5.40;99.30;;;;;;5010985;28;20374;-64
2023/01/30 05:43:49;;;;;;;15.55;10.23;;;5.30;99.30;;;;;;5011179;28;20405;-64
2023/01/30 05:46:35;;;;;;;15.52;10.18;;;5.30;99.30;;;;;;5012247;28;20018;-64
2023/01/30 05:49:21;;;;;;;17.40;10.68;;;5.30;99.40;;;;;;5012092;28;20034;-64
2023/01/30 05:52:07;;;;;;;17.17;11.25;;;5.40;99.50;;;;;;5011195;28;20133;-63
2023/01/30 05:54:53;;;;;;;16.35;10.35;;;5.30;99.50;;;;;;5011582;28;20028;-63
2023/01/30 05:57:39;;;;;;;17.70;10.00;;;5.40;99.50;;;;;;5012169;28;20038;-63
2023/01/30 06:00:25;;;;;;;17.52;11.40;;;5.30;99.50;;;;;;5012111;28;20046;-64
2023/01/30 06:03:11;;;;;;;16.23;10.20;;;5.30;99.60;;;;;;5010891;28;20382;-64
2023/01/30 06:05:57;;;;;;;17.75;10.35;;;5.30;99.60;;;;;;5018499;28;20357;-64
2023/01/30 06:08:43;;;;;;;16.15;10.45;;;5.30;99.70;;;;;;5029482;28;20059;-64
2023/01/30 06:11:29;;;;;;;18.23;11.13;;;5.30;99.80;;;;;;5030006;28;20028;-64
2023/01/30 06:14:15;;;;;;;16.27;10.50;;;5.30;99.80;;;;;;5028805;28;20017;-64
2023/01/30 06:17:01;;;;;;;17.80;10.38;;;5.30;99.90;;;;;;5029167;28;20401;-63
2023/01/30 06:19:47;;;;;;;14.48;9.70;;;5.30;99.90;;;;;;5029509;28;20064;-64
2023/01/30 06:22:33;;;;;;;16.58;10.20;;;5.40;99.90;;;;;;5029316;28;20399;-64
2023/01/30 06:25:19;;;;;;;18.27;11.45;;;5.40;99.90;;;;;;5029823;28;20389;-64
2023/01/30 06:28:05;;;;;;;16.55;9.68;;;5.40;99.90;;;;;;5028185;28;20056;-64
2023/01/30 06:30:51;;;;;;;15.80;9.50;;;5.30;99.90;;;;;;5030365;28;20033;-64
2023/01/30 06:33:37;;;;;;;14.55;9.60;;;5.40;99.90;;;;;;5029865;28;20034;-64
2023/01/30 06:36:23;;;;;;;14.55;9.73;;;5.40;99.90;;;;;;5029091;28;20033;-64
2023/01/30 06:39:09;;;;;;;14.52;9.93;;;5.40;99.90;;;;;;5019416;28;20045;-64
2023/01/30 06:41:55;;;;;;;13.63;9.52;;;5.40;99.90;;;;;;5030097;28;20029;-65
2023/01/30 06:44:41;;;;;;;15.45;9.70;;;5.50;99.90;;;;;;5033527;28;20018;-64
2023/01/30 06:47:27;;;;;;;15.50;9.27;;;5.50;99.90;;;;;;5015345;28;20382;-64
2023/01/30 06:50:14;;;;;;;15.73;9.20;;;5.50;99.90;;;;;;5014096;28;20076;-63
2023/01/30 06:53:02;;;;;;;13.30;9.07;;;5.50;99.90;;;;;;5013517;28;20030;-64
2023/01/30 06:55:48;;;;;;;13.82;8.90;;;5.60;99.90;;;;;;5014894;28;20077;-64
2023/01/30 06:58:34;;;;;;;14.20;9.40;;;5.60;99.90;;;;;;5032669;28;20120;-64
2023/01/30 07:01:20;;;;;;;14.57;8.90;;;5.70;99.90;;;;;;5033108;28;20029;-64
2023/01/30 07:04:06;;;;;;;12.85;8.73;;;5.70;99.90;;;;;;5014106;28;20026;-64
2023/01/30 07:06:52;;;;;;;12.68;8.75;;;5.80;99.90;;;;;;5013760;28;20037;-64
2023/01/30 07:09:38;;;;;;;14.55;8.80;;;5.80;99.90;;;;;;5014983;28;20032;-64
2023/01/30 07:12:25;;;;;;;13.48;8.02;;;5.80;99.90;;;;;;5014874;28;20072;-63
2023/01/30 07:15:11;;;;;;;13.05;7.93;;;5.80;99.90;;;;;;5016301;28;20033;-64
2023/01/30 07:17:57;;;;;;;12.95;7.80;;;5.90;99.90;;;;;;5013790;28;20107;-64
2023/01/30 07:20:47;;;;;;;12.40;8.00;;;6.00;99.90;;;;;;5017357;28;20049;-64
2023/01/30 07:23:33;;;;;;;11.15;8.15;;;6.00;99.90;;;;;;5032466;28;20201;-64
2023/01/30 07:26:19;;;;;;;12.85;8.55;;;6.00;99.90;;;;;;5032638;28;20476;-64
2023/01/30 07:29:05;;;;;;;11.20;7.13;;;6.10;99.90;;;;;;5032580;28;20033;-64
2023/01/30 07:31:51;;;;;;;11.75;7.65;;;6.10;99.90;;;;;;5031655;28;20476;-64
2023/01/30 07:34:37;;;;;;;10.18;7.65;;;6.20;99.90;;;;;;5013445;28;20441;-63
2023/01/30 07:37:23;;;;;;;12.30;7.57;;;6.30;99.90;;;;;;5027075;28;20029;-65
2023/01/30 07:40:09;;;;;;;12.00;8.00;;;6.30;99.90;;;;;;5032923;28;20025;-64
2023/01/30 07:43:01;;;;;;;9.60;6.15;;;6.30;99.90;;;;;;5032630;28;20071;-65
2023/01/30 07:45:47;;;;;;;9.82;5.95;;;6.30;99.90;;;;;;5033375;28;20037;-65
2023/01/30 07:48:33;;;;;;;9.93;7.00;;;6.40;99.90;;;;;;5032778;28;20021;-63
2023/01/30 07:51:19;;;;;;;8.38;5.90;;;6.40;99.90;;;;;;5032516;28;20030;-64
2023/01/30 07:54:05;;;;;;;7.65;5.22;;;6.40;99.90;;;;;;5022398;28;20028;-64
2023/01/30 07:56:51;;;;;;;8.32;5.22;;;6.50;99.90;;;;;;5030636;28;20037;-64
2023/01/30 07:59:37;;;;;;;8.95;5.45;;;6.60;99.90;;;;;;5033361;28;20266;-64
2023/01/30 08:02:23;;;;;;;7.20;4.93;;;6.60;99.90;;;;;;5033800;28;20044;-64
2023/01/30 08:05:09;;;;;;;6.00;4.43;;;6.60;99.90;;;;;;5032185;28;20056;-64
2023/01/30 08:07:55;;;;;;;8.23;4.55;;;6.70;99.90;;;;;;5033511;28;20027;-64
2023/01/30 08:10:42;;;;;;;6.70;4.50;;;6.70;99.90;;;;;;5032545;28;20509;-64
2023/01/30 08:13:27;;;;;;;7.25;4.63;;;6.80;99.90;;;;;;5033675;28;20490;-65
2023/01/30 08:16:13;;;;;;;7.05;4.70;;;6.80;99.90;;;;;;5035515;28;20025;-64
2023/01/30 08:18:59;;;;;;;6.43;4.63;;;6.90;99.90;;;;;;5037144;28;20036;-65
2023/01/30 08:21:45;;;;;;;8.18;5.10;;;6.90;99.90;;;;;;5052566;28;20427;-67
2023/01/30 08:24:31;;;;;;;6.07;4.38;;;7.00;99.90;;;;;;5037662;28;20029;-67
2023/01/30 08:27:17;;;;;;;7.38;4.35;;;7.00;99.90;;;;;;5051116;28;20025;-67
2023/01/30 08:30:03;;;;;;;6.18;4.15;;;7.00;99.90;;;;;;5051714;28;20416;-67
2023/01/30 08:32:49;;;;;;;6.32;3.83;;;7.00;99.90;;;;;;5043760;28;20460;-68
2023/01/30 08:35:35;;;;;;;6.55;3.90;;;7.00;99.90;;;;;;5031087;28;20029;-67
2023/01/30 08:38:21;;;;;;;8.25;4.30;;;7.10;99.90;;;;;;5035353;28;20021;-68
2023/01/30 08:41:08;;;;;;;5.90;3.90;;;7.10;99.90;;;;;;5052129;28;20598;-68
2023/01/30 08:43:54;;;;;;;4.28;3.45;;;7.00;99.90;;;;;;5052128;28;20025;-68
2023/01/30 08:46:40;;;;;;;5.43;3.75;;;7.10;99.90;;;;;;5061990;28;20625;-68
2023/01/30 08:49:26;;;;;;;7.90;4.00;;;7.10;99.90;;;;;;5038918;28;20029;-67
2023/01/30 08:52:12;;;;;;;4.95;3.50;;;7.10;99.90;;;;;;5050916;28;20029;-68
2023/01/30 08:54:58;;;;;;;8.75;3.67;;;7.00;99.90;;;;;;5049680;28;20032;-68
2023/01/30 08:57:44;;;;;;;6.18;3.28;;;7.10;99.90;;;;;;5047169;28;20044;-67
2023/01/30 09:00:29;;;;;;;5.85;3.35;;;7.10;99.90;;;;;;5049088;28;20061;-67
2023/01/30 09:03:17;;;;;;;5.30;3.85;;;7.10;99.90;;;;;;5046938;28;20080;-67
2023/01/30 09:06:03;;;;;;;5.15;3.28;;;7.10;99.90;;;;;;5037734;28;20108;-69
2023/01/30 09:08:49;;;;;;;6.20;3.75;;;7.10;99.90;;;;;;5050835;28;20021;-68
2023/01/30 09:11:35;;;;;;;5.20;3.10;;;7.20;99.90;;;;;;5032560;28;20590;-68
2023/01/30 09:14:21;;;;;;;4.72;3.13;;;7.20;99.90;;;;;;5038876;28;20127;-68
2023/01/30 09:17:07;;;;;;;5.57;3.35;;;7.20;99.90;;;;;;5047020;28;20492;-69
2023/01/30 09:19:53;;;;;;;3.88;2.78;;;7.30;99.90;;;;;;5049399;28;20017;-67
2023/01/30 09:22:39;;;;;;;5.25;3.22;;;7.30;99.90;;;;;;5042560;28;20476;-69
2023/01/30 09:25:25;;;;;;;5.68;3.65;;;7.30;99.90;;;;;;5032193;28;20029;-69
2023/01/30 09:28:12;;;;;;;4.75;3.00;;;7.30;99.90;;;;;;5016963;28;20087;-68
2023/01/30 09:30:59;;;;;;;6.10;2.63;;;7.30;99.90;;;;;;5032019;28;20025;-69
2023/01/30 09:33:45;;;;;;;10.20;2.90;;;7.30;99.90;;;;;;5040883;28;20529;-69
2023/01/30 09:36:31;;;;;;;6.13;2.92;;;7.40;99.90;;;;;;5045741;28;20033;-68
2023/01/30 09:39:17;;;;;;;4.35;2.80;;;7.40;99.90;;;;;;5037432;28;20112;-69
2023/01/30 09:42:21;;;;;;;5.10;2.88;;;7.40;99.90;;;;;;5045519;28;20111;-65
2023/01/30 09:45:45;;;;;;;5.55;2.85;;;7.50;99.90;;;;;;5045420;28;20369;-64
2023/01/30 09:49:04;;;;;;;4.20;2.90;;;7.50;99.90;;;;;;5040427;28;20033;-65
2023/01/30 09:52:17;;;;;;;6.47;2.95;;;7.50;99.90;;;;;;5040365;28;20029;-66
2023/01/30 09:55:18;;;;;;;6.22;2.50;;;7.50;99.90;;;;;;5014388;28;20056;-67
2023/01/30 09:58:04;;;;;;;5.10;2.60;;;7.60;99.90;;;;;;5043554;28;20116;-67
2023/01/30 10:01:02;;;;;;;6.13;3.38;;;7.60;99.90;;;;;;5031190;28;20076;-66
2023/01/30 10:04:06;;;;;;;5.72;2.97;;;7.60;99.90;;;;;;5030767;28;20025;-66
2023/01/30 10:07:13;;;;;;;5.93;2.30;;;7.70;99.90;;;;;;5047079;28;20033;-67
2023/01/30 10:10:04;;;;;;;13.60;4.30;;;7.70;99.90;;;;;;5040327;28;20025;-66
2023/01/30 10:13:21;;;;;;;6.47;2.80;;;7.70;99.90;;;;;;5037927;28;20025;-67
2023/01/30 10:16:43;;;;;;;4.90;2.40;;;7.70;99.90;;;;;;5020422;28;20068;-65
2023/01/30 10:19:59;;;;;;;6.55;2.92;;;7.80;99.90;;;;;;4973876;28;20030;-66
2023/01/30 10:23:01;;;;;;;5.88;2.30;;;7.80;99.90;;;;;;5061078;28;20115;-67
2023/01/30 10:25:51;;;;;;;8.60;2.50;;;7.90;99.90;;;;;;5045874;28;20056;-66
2023/01/30 10:28:39;;;;;;;6.35;2.30;;;8.00;99.90;;;;;;5033820;28;20017;-66
2023/01/30 10:31:43;;;;;;;6.88;2.55;;;8.00;99.90;;;;;;5046133;28;20373;-66
2023/01/30 10:34:38;;;;;;;6.68;2.53;;;8.00;99.90;;;;;;5030933;28;20052;-66
2023/01/30 10:38:02;;;;;;;8.95;3.00;;;8.10;99.90;;;;;;5034858;28;20484;-66
2023/01/30 10:40:59;;;;;;;7.68;2.72;;;8.20;99.90;;;;;;5034678;28;20103;-65
2023/01/30 10:43:53;;;;;;;14.00;3.90;;;8.20;99.90;;;;;;5046664;28;20063;-66
2023/01/30 10:46:51;;;;;;;9.60;3.08;;;8.20;99.90;;;;;;5043602;28;20039;-65
2023/01/30 10:49:48;;;;;;;10.55;3.60;;;8.30;99.90;;;;;;5036054;28;20032;-65
2023/01/30 10:52:50;;;;;;;9.20;3.20;;;8.30;99.90;;;;;;5053986;28;20044;-64
2023/01/30 10:55:47;;;;;;;10.80;3.40;;;8.20;99.70;;;;;;5048542;28;20033;-65
2023/01/30 10:58:47;;;;;;;7.25;2.30;;;8.20;99.90;;;;;;5054161;28;20021;-66
2023/01/30 11:01:44;;;;;;;13.93;5.32;;;8.20;99.70;;;;;;5051610;28;20094;-68
2023/01/30 11:04:59;;;;;;;10.95;2.80;;;8.20;99.70;;;;;;5046165;28;20037;-67
2023/01/30 11:07:46;;;;;;;8.75;3.03;;;8.20;99.50;;;;;;5033553;28;20104;-67
2023/01/30 11:10:32;;;;;;;11.75;3.40;;;8.20;99.40;;;;;;5044387;28;20079;-67
2023/01/30 11:13:28;;;;;;;11.63;3.83;;;8.20;99.40;;;;;;5055200;28;20021;-67
2023/01/30 11:16:14;;;;;;;9.60;3.00;;;8.20;99.30;;;;;;5051960;28;20029;-67
2023/01/30 11:19:04;;;;;;;12.65;3.40;;;8.30;99.30;;;;;;5053822;28;20033;-67
2023/01/30 11:21:59;;;;;;;8.05;2.90;;;8.30;99.30;;;;;;5037826;28;20031;-66
2023/01/30 11:24:45;;;;;;;10.27;3.33;;;8.30;99.20;;;;;;5046634;28;20074;-66
2023/01/30 11:27:33;;;;;;;11.32;2.78;;;8.30;99.10;;;;;;5053451;28;20256;-65
2023/01/30 11:30:21;;;;;;;7.45;3.58;;;8.40;99.20;;;;;;5040529;28;20033;-65
2023/01/30 11:33:14;;;;;;;10.38;3.20;;;8.40;99.20;;;;;;5050188;28;20059;-66
2023/01/30 11:36:06;;;;;;;8.27;2.80;;;8.40;99.00;;;;;;5032562;28;20081;-67
2023/01/30 11:39:18;;;;;;;13.07;3.47;;;8.40;98.70;;;;;;5053510;28;20033;-66
2023/01/30 11:42:09;;;;;;;11.30;4.13;;;8.50;98.70;;;;;;5050391;28;20037;-67
2023/01/30 11:44:59;;;;;;;13.98;3.25;;;8.50;98.60;;;;;;5036559;28;20022;-67
2023/01/30 11:47:57;;;;;;;14.27;3.20;;;8.50;98.60;;;;;;5034888;28;20481;-65
2023/01/30 11:50:46;;;;;;;13.60;3.30;;;8.50;98.60;;;;;;5032515;28;20064;-65
2023/01/30 11:53:46;;;;;;;8.40;3.25;;;8.40;98.40;;;;;;5046767;28;20027;-64
2023/01/30 11:56:39;;;;;;;8.82;2.60;;;8.40;98.60;;;;;;5032130;28;20412;-65
2023/01/30 11:59:28;;;;;;;9.85;3.40;;;8.40;98.70;;;;;;5051426;28;20455;-65
2023/01/30 12:02:24;;;;;;;16.02;4.22;;;8.30;98.90;;;;;;5038297;28;20476;-65
2023/01/30 12:05:24;;;;;;;9.20;3.25;;;8.30;99.00;;;;;;5033511;28;20041;-66
2023/01/30 12:08:21;;;;;;;12.02;2.45;;;8.30;99.10;;;;;;5049594;28;20013;-66
2023/01/30 12:11:26;;;;;;;10.45;3.10;;;8.10;99.20;;;;;;5033318;28;20033;-66
2023/01/30 12:14:15;;;;;;;7.03;2.92;;;7.80;99.40;;;;;;5039638;28;20017;-66
2023/01/30 12:17:26;;;;;;;9.73;2.85;;;7.60;99.90;;;;;;5040341;28;20040;-66
2023/01/30 12:20:35;;;;;;;4.80;2.33;;;7.60;99.80;;;;;;5031755;28;20085;-66
2023/01/30 12:23:45;;;;;;;8.15;2.88;;;7.50;99.90;;;;;;5032910;28;20026;-64
2023/01/30 12:26:42;;;;;;;4.80;2.53;;;7.50;99.90;;;;;;5017348;28;20534;-68
2023/01/30 12:29:34;;;;;;;9.70;2.45;;;7.50;99.90;;;;;;5049865;28;20041;-66
2023/01/30 12:32:26;;;;;;;15.73;4.22;;;7.50;99.90;;;;;;5044766;28;20029;-68
2023/01/30 12:35:22;;;;;;;8.30;2.90;;;7.50;99.90;;;;;;5032413;28;20030;-68
2023/01/30 12:38:20;;;;;;;11.05;4.55;;;7.60;99.90;;;;;;5038065;28;20044;-67
2023/01/30 12:41:06;;;;;;;8.95;3.08;;;7.60;99.90;;;;;;5049394;28;20039;-68
2023/01/30 12:44:29;;;;;;;12.35;3.65;;;7.70;99.90;;;;;;5052237;28;20021;-67
2023/01/30 12:47:34;;;;;;;12.07;3.60;;;7.80;99.90;;;;;;5046241;28;20032;-68
2023/01/30 12:50:33;;;;;;;12.77;4.53;;;7.90;99.90;;;;;;5040828;28;20052;-67
2023/01/30 12:54:10;;;;;;;11.48;3.38;;;8.00;99.90;;;;;;5039688;28;20036;-66
2023/01/30 12:57:26;;;;;;;8.95;2.80;;;8.10;99.90;;;;;;5004301;28;20073;-66
2023/01/30 13:00:25;;;;;;;12.48;3.30;;;8.20;99.90;;;;;;5014234;28;20487;-66
2023/01/30 13:03:29;;;;;;;13.65;3.05;;;8.20;99.90;;;;;;5024308;28;20427;-66
2023/01/30 13:06:43;;;;;;;5.70;2.60;;;8.30;99.90;;;;;;5026865;28;20079;-66
2023/01/30 13:09:41;;;;;;;10.00;3.53;;;8.30;99.80;;;;;;5030444;28;20131;-66
2023/01/30 13:12:42;;;;;;;11.00;2.97;;;8.30;99.60;;;;;;5011166;28;20513;-67
2023/01/30 13:15:43;;;;;;;10.40;2.90;;;8.40;99.50;;;;;;5022933;28;20112;-67
2023/01/30 13:18:39;;;;;;;12.85;4.18;;;8.40;99.60;;;;;;5011742;28;20038;-67
2023/01/30 13:21:50;;;;;;;8.50;3.05;;;8.40;99.30;;;;;;5026179;28;20022;-66
2023/01/30 13:25:17;;;;;;;16.88;3.50;;;8.30;99.10;;;;;;5023799;28;20038;-66
2023/01/30 13:28:15;;;;;;;9.88;3.60;;;8.30;98.90;;;;;;5025837;28;20025;-65
2023/01/30 13:31:03;;;;;;;10.02;3.05;;;8.30;98.20;;;;;;5024629;28;20087;-66
2023/01/30 13:34:03;;;;;;;9.82;2.88;;;8.30;98.30;;;;;;5031003;28;20088;-66
2023/01/30 13:36:57;;;;;;;8.75;2.60;;;8.30;98.30;;;;;;5014947;28;20034;-65
2023/01/30 13:40:12;;;;;;;7.90;3.03;;;8.40;98.30;;;;;;5011928;28;20096;-63
2023/01/30 13:43:14;;;;;;;11.68;3.50;;;8.40;98.20;;;;;;5012260;28;20043;-64
2023/01/30 13:46:05;;;;;;;9.00;2.95;;;8.40;98.00;;;;;;5014816;28;20076;-65
2023/01/30 13:49:16;;;;;;;9.52;3.13;;;8.40;97.80;;;;;;5029062;28;20033;-65
2023/01/30 13:52:27;;;;;;;10.40;2.60;;;8.40;98.00;;;;;;5013357;28;20161;-63
2023/01/30 13:55:16;;;;;;;6.95;2.75;;;8.30;98.30;;;;;;5016901;28;20461;-64
2023/01/30 13:58:34;;;;;;;8.07;2.35;;;8.20;98.60;;;;;;5046882;28;20037;-64
2023/01/30 14:01:21;;;;;;;8.18;2.70;;;8.10;98.80;;;;;;5071107;28;20032;-64
2023/01/30 14:04:41;;;;;;;7.68;2.22;;;8.00;99.00;;;;;;5039514;28;20029;-63
2023/01/30 14:07:38;;;;;;;8.82;2.42;;;7.90;99.20;;;;;;5051967;28;20400;-64
2023/01/30 14:10:26;;;;;;;10.40;3.42;;;7.80;99.30;;;;;;5049991;28;20033;-63
2023/01/30 14:13:14;;;;;;;6.20;2.22;;;7.80;99.50;;;;;;5050885;28;20563;-64
2023/01/30 14:16:03;;;;;;;10.13;2.83;;;7.80;99.60;;;;;;5048271;28;20029;-64
2023/01/30 14:18:49;;;;;;;5.63;2.83;;;7.70;99.90;;;;;;5045672;28;20037;-64
2023/01/30 14:21:35;;;;;;;8.90;2.80;;;7.50;99.90;;;;;;5041480;28;20036;-65
2023/01/30 14:24:23;;;;;;;9.38;3.10;;;7.50;99.90;;;;;;5031156;28;20447;-65
2023/01/30 14:27:30;;;;;;;13.30;3.05;;;7.40;99.90;;;;;;5049397;28;20075;-66
2023/01/30 14:30:44;;;;;;;8.82;2.75;;;7.40;99.90;;;;;;5036541;28;20048;-66
2023/01/30 14:33:33;;;;;;;7.93;2.75;;;7.30;99.90;;;;;;5033180;28;20035;-66
2023/01/30 14:36:19;;;;;;;6.68;2.15;;;7.30;99.90;;;;;;5046380;28;20024;-65
2023/01/30 14:39:37;;;;;;;5.05;2.50;;;7.30;99.90;;;;;;5054594;28;20029;-68
2023/01/30 14:42:31;;;;;;;5.90;1.75;;;7.20;99.90;;;;;;5036706;28;20052;-66
2023/01/30 14:45:56;;;;;;;4.80;1.33;;;7.20;99.90;;;;;;5051004;28;20021;-68
2023/01/30 14:48:59;;;;;;;2.90;1.50;;;7.30;99.90;;;;;;5050898;28;20090;-67
2023/01/30 14:51:46;;;;;;;3.88;1.15;;;7.30;99.90;;;;;;5053058;28;20078;-67
2023/01/30 14:54:37;;;;;;;3.85;1.58;;;7.20;99.90;;;;;;5068799;28;20034;-68
2023/01/30 14:57:31;;;;;;;2.42;1.48;;;7.20;99.90;;;;;;5043916;28;20033;-68
2023/01/30 15:00:21;;;;;;;2.72;1.20;;;7.20;99.90;;;;;;5042985;28;20082;-68
2023/01/30 15:03:17;;;;;;;2.60;1.60;;;7.10;99.90;;;;;;5039373;28;20092;-67